createdAt,value
2023-03-10T00:03:58.654Z,9.60
2023-03-10T00:10:33.393Z,9.70
2023-03-10T00:16:56.936Z,9.60
2023-03-10T00:23:06.928Z,9.60
2023-03-10T00:29:05.986Z,9.50
2023-03-10T00:35:41.538Z,9.60
2023-03-10T00:42:05.198Z,9.60
2023-03-10T00:48:14.779Z,9.30
2023-03-10T00:54:13.642Z,9.20
2023-03-10T01:00:48.350Z,9.20
2023-03-10T01:07:12.086Z,9.10
2023-03-10T01:13:22.040Z,9.30
2023-03-10T01:19:20.941Z,9.30
2023-03-10T01:25:55.767Z,9.30
2023-03-10T01:32:19.365Z,9.50
2023-03-10T01:38:28.998Z,9.50
2023-03-10T01:44:29.100Z,9.70
2023-03-10T01:51:04.174Z,9.60
2023-03-10T01:57:29.834Z,9.50
2023-03-10T02:03:46.326Z,9.60
2023-03-10T02:09:47.899Z,9.50
2023-03-10T02:16:23.223Z,9.40
2023-03-10T02:22:47.070Z,9.20
2023-03-10T02:28:58.847Z,9.10
2023-03-10T02:34:57.939Z,9.10
2023-03-10T02:41:38.458Z,9.20
2023-03-10T02:48:02.061Z,9.20
2023-03-10T02:54:11.866Z,9.30
2023-03-10T03:00:11.952Z,9.30
2023-03-10T03:06:47.296Z,9.30
2023-03-10T03:13:10.998Z,9.40
2023-03-10T03:19:20.562Z,9.30
2023-03-10T03:25:21.229Z,9.20
2023-03-10T03:31:56.045Z,9.20
2023-03-10T03:38:19.660Z,9.20
2023-03-10T03:44:29.266Z,9.10
2023-03-10T03:50:28.233Z,9.10
2023-03-10T03:57:03.755Z,9.00
2023-03-10T04:03:27.415Z,9.10
2023-03-10T04:09:40.595Z,9.00
2023-03-10T04:15:39.511Z,9.20
2023-03-10T04:22:14.248Z,9.30
2023-03-10T04:28:38.136Z,9.10
2023-03-10T04:34:47.732Z,9.20
2023-03-10T04:40:52.619Z,9.20
2023-03-10T04:47:28.087Z,9.20
2023-03-10T04:53:51.655Z,9.20
2023-03-10T05:00:03.159Z,9.20
2023-03-10T05:06:02.748Z,9.30
2023-03-10T05:12:42.198Z,9.30
2023-03-10T05:19:05.823Z,9.30
2023-03-10T05:25:15.562Z,9.50
2023-03-10T05:31:16.288Z,9.30
2023-03-10T05:37:51.235Z,9.30
2023-03-10T05:44:14.803Z,9.30
2023-03-10T05:50:24.691Z,9.20
2023-03-10T05:56:23.699Z,9.40
2023-03-10T06:02:58.444Z,9.30
2023-03-10T06:09:22.050Z,9.10
2023-03-10T06:15:31.643Z,9.20
2023-03-10T06:21:30.549Z,9.30
2023-03-10T06:28:08.540Z,9.00
2023-03-10T06:34:33.159Z,8.50
2023-03-10T06:40:42.771Z,8.50
2023-03-10T06:46:41.628Z,8.10
2023-03-10T06:53:19.508Z,7.40
2023-03-10T06:59:43.058Z,7.20
2023-03-10T07:05:52.992Z,7.20
2023-03-10T07:11:51.864Z,7.30
2023-03-10T07:18:29.579Z,7.50
2023-03-10T07:24:56.209Z,7.50
2023-03-10T07:31:07.415Z,7.40
2023-03-10T07:37:06.351Z,7.30
2023-03-10T07:43:41.086Z,7.40
2023-03-10T07:50:04.808Z,7.50
2023-03-10T07:56:14.536Z,7.70
2023-03-10T08:02:14.814Z,8.00
2023-03-10T08:08:49.985Z,8.00
2023-03-10T08:15:14.591Z,8.10
2023-03-10T08:21:24.231Z,8.00
2023-03-10T08:27:23.226Z,7.60
2023-03-10T08:33:58.597Z,7.50
2023-03-10T08:40:22.220Z,7.40
2023-03-10T08:46:32.069Z,7.50
2023-03-10T08:52:31.097Z,7.60
2023-03-10T08:59:06.844Z,7.70
2023-03-10T09:05:30.393Z,7.90
2023-03-10T09:11:40.688Z,8.20
2023-03-10T09:17:40.862Z,8.20
2023-03-10T09:24:15.853Z,7.90
2023-03-10T09:30:40.221Z,7.90
2023-03-10T09:36:49.868Z,7.90
2023-03-10T09:43:07.054Z,8.00
2023-03-10T09:50:11.900Z,8.10
2023-03-10T09:56:36.077Z,8.10
2023-03-10T10:02:47.790Z,8.20
2023-03-10T10:09:11.625Z,8.30
2023-03-10T10:16:07.362Z,8.30
2023-03-10T10:22:38.023Z,8.30
2023-03-10T10:28:50.421Z,8.20
2023-03-10T10:34:49.711Z,8.20
2023-03-10T10:41:30.592Z,8.20
2023-03-10T10:47:55.706Z,8.10
2023-03-10T10:54:20.413Z,8.10
2023-03-10T11:00:33.001Z,8.20
2023-03-10T11:07:19.503Z,8.20
2023-03-10T11:14:10.184Z,8.00
2023-03-10T11:20:39.160Z,8.30
2023-03-10T11:26:38.106Z,8.50
2023-03-10T11:33:30.494Z,8.10
2023-03-10T11:40:15.704Z,8.10
2023-03-10T11:46:30.531Z,7.90
2023-03-10T11:52:32.094Z,7.80
2023-03-10T11:59:13.650Z,8.10
2023-03-10T12:05:55.259Z,8.20
2023-03-10T12:12:06.458Z,8.20
2023-03-10T12:18:07.481Z,8.00
2023-03-10T12:24:45.196Z,8.00
2023-03-10T12:31:10.473Z,8.10
2023-03-10T12:37:22.570Z,8.10
2023-03-10T12:43:43.384Z,8.20
2023-03-10T12:50:22.765Z,8.20
2023-03-10T12:57:06.662Z,8.20
2023-03-10T13:03:41.783Z,8.20
2023-03-10T13:09:43.760Z,8.10
2023-03-10T13:16:21.264Z,8.10
2023-03-10T13:22:58.233Z,8.20
2023-03-10T13:29:16.187Z,8.30
2023-03-10T13:35:23.532Z,8.20
2023-03-10T13:42:00.623Z,7.60
2023-03-10T13:48:25.762Z,7.30
2023-03-10T13:54:36.392Z,7.40
2023-03-10T14:00:36.455Z,7.40
2023-03-10T14:07:21.591Z,7.30
2023-03-10T14:13:45.236Z,7.30
2023-03-10T14:19:54.926Z,7.20
2023-03-10T14:25:57.774Z,7.40
2023-03-10T14:32:32.530Z,7.30
2023-03-10T14:38:56.153Z,6.90
2023-03-10T14:45:12.920Z,6.80
2023-03-10T14:51:32.623Z,7.10
2023-03-10T14:58:16.800Z,7.10
2023-03-10T15:04:40.440Z,7.20
2023-03-10T15:10:50.993Z,7.20
2023-03-10T15:16:49.889Z,7.30
2023-03-10T15:23:26.928Z,7.10
2023-03-10T15:29:50.520Z,7.10
2023-03-10T15:36:00.418Z,7.10
2023-03-10T15:41:59.475Z,7.10
2023-03-10T15:48:35.207Z,6.90
2023-03-10T15:54:58.764Z,7.10
2023-03-10T16:01:09.395Z,7.10
2023-03-10T16:07:08.286Z,7.10
2023-03-10T16:13:45.756Z,6.90
2023-03-10T16:20:12.244Z,6.60
2023-03-10T16:26:22.719Z,6.60
2023-03-10T16:32:21.628Z,5.80
2023-03-10T16:38:56.868Z,5.30
2023-03-10T16:45:20.542Z,5.30
2023-03-10T16:51:35.581Z,5.30
2023-03-10T16:57:34.508Z,5.30
2023-03-10T17:04:09.312Z,5.40
2023-03-10T17:10:33.412Z,5.50
2023-03-10T17:16:43.663Z,5.40
2023-03-10T17:22:42.653Z,5.30
2023-03-10T17:29:18.317Z,5.30
2023-03-10T17:35:42.112Z,5.20
2023-03-10T17:41:51.809Z,5.30
2023-03-10T17:47:50.900Z,5.20
2023-03-10T17:54:25.731Z,5.20
2023-03-10T18:00:49.684Z,5.00
2023-03-10T18:06:59.421Z,4.60
2023-03-10T18:12:58.459Z,4.50
2023-03-10T18:19:33.358Z,4.70
2023-03-10T18:25:58.841Z,4.50
2023-03-10T18:32:08.637Z,4.50
2023-03-10T18:38:07.927Z,4.30
2023-03-10T18:44:46.533Z,4.20
2023-03-10T18:51:10.617Z,4.20
2023-03-10T18:57:20.304Z,4.10
2023-03-10T19:03:19.391Z,3.90
2023-03-10T19:09:54.722Z,3.80
2023-03-10T19:16:18.608Z,3.70
2023-03-10T19:22:28.656Z,3.50
2023-03-10T19:28:27.397Z,3.40
2023-03-10T19:36:39.516Z,3.40
2023-03-10T19:43:02.720Z,3.30
2023-03-10T19:49:12.974Z,3.30
2023-03-10T19:55:17.800Z,3.20
2023-03-10T20:01:52.579Z,3.10
2023-03-10T20:08:16.210Z,2.90
2023-03-10T20:14:26.861Z,2.90
2023-03-10T20:20:25.743Z,3.30
2023-03-10T20:27:03.146Z,3.10
2023-03-10T20:33:27.286Z,3.00
2023-03-10T20:39:36.943Z,3.00
2023-03-10T20:45:36.319Z,3.00
2023-03-10T20:52:11.409Z,3.00
2023-03-10T20:58:35.201Z,2.90
2023-03-10T21:04:44.984Z,2.90
2023-03-10T21:10:44.961Z,2.80
2023-03-10T21:17:19.794Z,2.80
2023-03-10T21:23:43.540Z,2.80
2023-03-10T21:29:53.520Z,2.70
2023-03-10T21:35:52.593Z,2.60
2023-03-10T21:42:28.163Z,2.60
2023-03-10T21:48:52.334Z,2.60
2023-03-10T21:55:02.141Z,2.90
2023-03-10T22:01:08.214Z,2.50
2023-03-10T22:07:43.630Z,2.50
2023-03-10T22:14:07.364Z,2.40
2023-03-10T22:20:20.485Z,2.20
2023-03-10T22:26:19.358Z,1.60
2023-03-10T22:32:54.945Z,1.50
2023-03-10T22:39:18.566Z,1.00
2023-03-10T22:45:29.500Z,1.00
2023-03-10T22:51:28.412Z,0.90
2023-03-10T22:58:06.005Z,0.90
2023-03-10T23:04:29.958Z,0.70
2023-03-10T23:10:40.083Z,0.70
2023-03-10T23:16:39.071Z,0.60
2023-03-10T23:23:14.765Z,0.70
2023-03-10T23:29:38.535Z,0.70
2023-03-10T23:35:54.132Z,0.80
2023-03-10T23:41:53.469Z,0.80
2023-03-10T23:48:29.081Z,0.80
2023-03-10T23:54:52.857Z,0.60
